createdAt,value
2023-05-08T00:00:23.865Z,54.77
2023-05-08T00:01:26.335Z,54.73
2023-05-08T00:02:28.690Z,54.85
2023-05-08T00:03:31.374Z,54.81
2023-05-08T00:04:33.936Z,54.77
2023-05-08T00:05:36.263Z,54.89
2023-05-08T00:06:38.571Z,54.85
2023-05-08T00:07:40.914Z,54.81
2023-05-08T00:08:43.228Z,54.90
2023-05-08T00:09:46.296Z,54.86
2023-05-08T00:10:49.056Z,54.82
2023-05-08T00:11:51.503Z,54.93
2023-05-08T00:12:54.040Z,55.00
2023-05-08T00:13:56.320Z,54.99
2023-05-08T00:14:58.705Z,55.00
2023-05-08T00:16:00.997Z,55.01
2023-05-08T00:17:03.524Z,55.01
2023-05-08T00:18:06.010Z,55.16
2023-05-08T00:19:09.205Z,54.93
2023-05-08T00:20:12.237Z,55.09
2023-05-08T00:21:14.784Z,54.99
2023-05-08T00:22:17.045Z,55.08
2023-05-08T00:23:19.362Z,55.04
2023-05-08T00:24:21.643Z,55.18
2023-05-08T00:25:24.167Z,55.33
2023-05-08T00:26:26.450Z,55.20
2023-05-08T00:27:28.676Z,55.26
2023-05-08T00:28:31.068Z,55.28
2023-05-08T00:29:33.410Z,55.26
2023-05-08T00:30:35.715Z,55.30
2023-05-08T00:31:37.993Z,55.27
2023-05-08T00:32:40.893Z,55.33
2023-05-08T00:33:43.139Z,55.44
2023-05-08T00:34:45.636Z,55.46
2023-05-08T00:35:47.956Z,55.46
2023-05-08T00:36:50.246Z,55.40
2023-05-08T00:37:53.036Z,55.53
2023-05-08T00:38:55.280Z,55.62
2023-05-08T00:39:57.536Z,55.77
2023-05-08T00:41:01.978Z,55.77
2023-05-08T00:42:04.250Z,55.69
2023-05-08T00:43:06.872Z,55.78
2023-05-08T00:44:09.150Z,55.89
2023-05-08T00:45:11.741Z,55.92
2023-05-08T00:46:14.260Z,55.96
2023-05-08T00:47:16.673Z,55.93
2023-05-08T00:48:19.339Z,55.90
2023-05-08T00:49:21.837Z,56.06
2023-05-08T00:50:24.129Z,56.04
2023-05-08T00:51:28.124Z,56.00
2023-05-08T00:52:33.270Z,56.11
2023-05-08T00:53:38.775Z,56.20
2023-05-08T00:54:41.042Z,56.18
2023-05-08T00:55:43.829Z,56.22
2023-05-08T00:56:47.241Z,56.25
2023-05-08T00:57:49.706Z,56.33
2023-05-08T00:58:52.448Z,56.29
2023-05-08T00:59:55.998Z,56.27
2023-05-08T01:00:59.648Z,56.43
2023-05-08T01:02:02.427Z,56.56
2023-05-08T01:03:04.901Z,56.45
2023-05-08T01:04:07.781Z,56.36
2023-05-08T01:05:10.534Z,56.38
2023-05-08T01:06:13.082Z,56.49
2023-05-08T01:07:16.651Z,56.64
2023-05-08T01:08:18.937Z,56.59
2023-05-08T01:09:21.252Z,56.61
2023-05-08T01:10:23.483Z,56.69
2023-05-08T01:11:39.465Z,56.73
2023-05-08T01:12:53.169Z,56.83
2023-05-08T01:14:34.422Z,56.76
2023-05-08T01:15:47.915Z,56.81
2023-05-08T01:17:02.290Z,56.79
2023-05-08T01:18:27.936Z,56.91
2023-05-08T01:20:07.203Z,56.79
2023-05-08T01:21:29.923Z,56.90
2023-05-08T01:22:53.500Z,56.92
2023-05-08T01:24:23.407Z,57.00
2023-05-08T01:26:03.391Z,57.01
2023-05-08T01:27:30.639Z,57.10
2023-05-08T01:29:09.465Z,57.09
2023-05-08T01:30:55.741Z,57.17
2023-05-08T01:32:16.622Z,57.24
2023-05-08T01:33:44.425Z,57.28
2023-05-08T01:34:54.687Z,57.34
2023-05-08T01:36:04.024Z,57.36
2023-05-08T01:37:15.836Z,57.35
2023-05-08T01:38:40.208Z,57.48
2023-05-08T01:39:57.543Z,57.62
2023-05-08T01:41:08.915Z,57.59
2023-05-08T01:42:23.560Z,57.72
2023-05-08T01:43:56.277Z,57.65
2023-05-08T01:45:03.088Z,57.79
2023-05-08T01:46:13.884Z,57.83
2023-05-08T01:47:19.199Z,57.90
2023-05-08T01:48:29.893Z,57.92
2023-05-08T01:49:40.249Z,57.91
2023-05-08T01:50:48.753Z,57.91
2023-05-08T01:51:59.254Z,58.05
2023-05-08T01:53:08.551Z,58.09
2023-05-08T01:54:20.121Z,58.03
2023-05-08T01:55:30.822Z,58.08
2023-05-08T01:56:34.254Z,58.03
2023-05-08T01:57:41.918Z,58.28
2023-05-08T01:58:45.783Z,58.16
2023-05-08T01:59:52.212Z,58.21
2023-05-08T02:00:55.370Z,58.35
2023-05-08T02:02:01.214Z,58.24
2023-05-08T02:03:06.952Z,58.38
2023-05-08T02:04:11.534Z,58.50
2023-05-08T02:05:15.772Z,58.58
2023-05-08T02:06:22.125Z,58.68
2023-05-08T02:07:25.484Z,58.56
2023-05-08T02:08:32.553Z,58.70
2023-05-08T02:09:35.136Z,58.76
2023-05-08T02:10:38.140Z,58.69
2023-05-08T02:11:42.890Z,58.79
2023-05-08T02:12:48.190Z,58.83
2023-05-08T02:13:52.330Z,58.80
2023-05-08T02:14:57.004Z,58.84
2023-05-08T02:16:00.991Z,59.04
2023-05-08T02:17:04.757Z,58.90
2023-05-08T02:18:09.198Z,58.98
2023-05-08T02:19:12.437Z,59.01
2023-05-08T02:20:16.485Z,59.31
2023-05-08T02:21:20.077Z,59.21
2023-05-08T02:22:26.899Z,59.34
2023-05-08T02:23:30.145Z,59.35
2023-05-08T02:24:36.253Z,59.37
2023-05-08T02:25:39.826Z,59.21
2023-05-08T02:26:46.351Z,59.48
2023-05-08T02:27:50.821Z,59.49
2023-05-08T02:28:56.657Z,59.54
2023-05-08T02:30:00.796Z,59.51
2023-05-08T02:31:03.647Z,59.59
2023-05-08T02:32:09.011Z,59.48
2023-05-08T02:33:14.298Z,59.55
2023-05-08T02:34:17.752Z,59.63
2023-05-08T02:35:20.829Z,59.58
2023-05-08T02:36:24.561Z,59.56
2023-05-08T02:37:28.130Z,59.68
2023-05-08T02:38:32.007Z,59.68
2023-05-08T02:39:35.945Z,59.68
2023-05-08T02:40:46.338Z,59.77
2023-05-08T02:41:49.177Z,59.80
2023-05-08T02:42:52.854Z,59.75
2023-05-08T02:43:55.493Z,59.74
2023-05-08T02:44:58.895Z,59.64
2023-05-08T02:46:18.659Z,59.70
2023-05-08T02:47:42.531Z,59.87
2023-05-08T02:48:57.637Z,59.92
2023-05-08T02:50:47.739Z,59.68
2023-05-08T02:52:04.632Z,59.78
2023-05-08T02:53:11.668Z,59.84
2023-05-08T02:54:22.157Z,59.96
2023-05-08T02:55:53.837Z,59.93
2023-05-08T02:57:18.843Z,60.09
2023-05-08T02:58:35.064Z,59.98
2023-05-08T02:59:47.306Z,59.88
2023-05-08T03:01:06.767Z,60.06
2023-05-08T03:02:40.688Z,60.17
2023-05-08T03:03:46.891Z,60.10
2023-05-08T03:04:59.667Z,60.12
2023-05-08T03:06:03.652Z,60.10
2023-05-08T03:07:06.663Z,60.15
2023-05-08T03:08:16.378Z,60.15
2023-05-08T03:09:21.880Z,60.25
2023-05-08T03:10:29.925Z,60.32
2023-05-08T03:11:40.884Z,60.22
2023-05-08T03:12:47.117Z,60.18
2023-05-08T03:13:59.101Z,60.32
2023-05-08T03:15:07.800Z,60.26
2023-05-08T03:16:16.616Z,60.58
2023-05-08T03:17:21.590Z,60.37
2023-05-08T03:18:28.814Z,60.49
2023-05-08T03:19:36.220Z,60.38
2023-05-08T03:20:45.351Z,60.42
2023-05-08T03:21:49.423Z,60.36
2023-05-08T03:22:55.012Z,60.30
2023-05-08T03:24:01.045Z,60.29
2023-05-08T03:25:06.644Z,60.25
2023-05-08T03:26:11.660Z,60.16
2023-05-08T03:27:16.122Z,60.17
2023-05-08T03:28:20.065Z,60.23
2023-05-08T03:29:24.762Z,60.24
2023-05-08T03:30:28.315Z,60.19
2023-05-08T03:31:37.774Z,60.05
2023-05-08T03:32:41.443Z,60.08
2023-05-08T03:33:45.093Z,60.18
2023-05-08T03:34:49.499Z,60.10
2023-05-08T03:35:53.910Z,60.09
2023-05-08T03:36:56.574Z,60.13
2023-05-08T03:37:59.485Z,60.07
2023-05-08T03:39:02.617Z,60.19
2023-05-08T03:40:06.882Z,60.15
2023-05-08T03:41:09.523Z,60.00
2023-05-08T03:42:21.473Z,60.05
2023-05-08T03:43:25.207Z,60.15
2023-05-08T03:44:29.999Z,60.10
2023-05-08T03:45:35.979Z,60.23
2023-05-08T03:46:39.115Z,60.05
2023-05-08T03:47:42.469Z,60.06
2023-05-08T03:48:48.281Z,60.10
2023-05-08T03:49:51.444Z,60.19
2023-05-08T03:50:53.996Z,60.18
2023-05-08T03:51:57.268Z,60.15
2023-05-08T03:52:59.774Z,60.14
2023-05-08T03:54:02.411Z,60.12
2023-05-08T03:55:06.592Z,60.19
2023-05-08T03:56:08.950Z,60.23
2023-05-08T03:57:11.420Z,60.29
2023-05-08T03:58:40.990Z,60.39
2023-05-08T04:00:05.380Z,60.33
2023-05-08T04:01:21.414Z,60.35
2023-05-08T04:02:57.890Z,60.35
2023-05-08T04:04:06.361Z,60.33
2023-05-08T04:05:25.090Z,60.28
2023-05-08T04:06:48.693Z,60.35
2023-05-08T04:08:15.855Z,60.34
2023-05-08T04:09:31.532Z,60.35
2023-05-08T04:10:43.833Z,60.14
2023-05-08T04:12:22.492Z,60.34
2023-05-08T04:13:31.745Z,60.27
2023-05-08T04:14:40.176Z,60.44
2023-05-08T04:15:52.226Z,60.33
2023-05-08T04:17:02.902Z,60.50
2023-05-08T04:18:09.335Z,60.40
2023-05-08T04:19:24.117Z,60.41
2023-05-08T04:20:29.537Z,60.44
2023-05-08T04:21:35.581Z,60.51
2023-05-08T04:22:40.731Z,60.54
2023-05-08T04:23:44.850Z,60.67
2023-05-08T04:24:49.429Z,60.71
2023-05-08T04:25:53.898Z,60.58
2023-05-08T04:26:57.431Z,60.66
2023-05-08T04:28:02.756Z,60.62
2023-05-08T04:29:07.540Z,60.65
2023-05-08T04:30:10.827Z,60.76
2023-05-08T04:31:17.322Z,60.71
2023-05-08T04:32:21.984Z,60.80
2023-05-08T04:33:24.570Z,60.59
2023-05-08T04:34:29.018Z,60.78
2023-05-08T04:35:32.840Z,60.81
2023-05-08T04:36:35.651Z,60.81
2023-05-08T04:37:41.164Z,60.79
2023-05-08T04:38:43.860Z,60.59
2023-05-08T04:39:51.283Z,60.56
2023-05-08T04:40:53.664Z,60.54
2023-05-08T04:42:02.784Z,60.40
2023-05-08T04:43:07.025Z,60.22
2023-05-08T04:44:09.460Z,60.14
2023-05-08T04:45:12.400Z,60.12
2023-05-08T04:46:15.088Z,60.00
2023-05-08T04:47:17.782Z,59.98
2023-05-08T04:48:21.621Z,59.60
2023-05-08T04:49:24.067Z,59.46
2023-05-08T04:50:26.628Z,59.31
2023-05-08T04:51:29.651Z,59.32
2023-05-08T04:52:32.068Z,59.20
2023-05-08T04:53:34.485Z,59.18
2023-05-08T04:54:37.062Z,58.99
2023-05-08T04:55:39.736Z,58.67
2023-05-08T04:56:42.067Z,58.62
2023-05-08T04:57:44.755Z,58.39
2023-05-08T04:58:47.455Z,58.25
2023-05-08T04:59:49.838Z,57.89
2023-05-08T05:00:52.140Z,57.69
2023-05-08T05:01:58.368Z,57.39
2023-05-08T05:03:00.866Z,57.07
2023-05-08T05:04:03.789Z,57.16
2023-05-08T05:05:06.681Z,56.84
2023-05-08T05:06:09.632Z,56.52
2023-05-08T05:07:12.066Z,56.35
2023-05-08T05:08:14.404Z,56.12
2023-05-08T05:09:16.789Z,56.01
2023-05-08T05:10:19.280Z,55.96
2023-05-08T05:11:21.983Z,55.96
2023-05-08T05:12:25.762Z,55.53
2023-05-08T05:13:28.762Z,55.32
2023-05-08T05:14:31.869Z,54.96
2023-05-08T05:15:34.152Z,54.85
2023-05-08T05:16:37.537Z,54.65
2023-05-08T05:17:40.290Z,54.63
2023-05-08T05:18:42.937Z,54.48
2023-05-08T05:19:45.302Z,54.31
2023-05-08T05:20:49.273Z,54.04
2023-05-08T05:21:51.643Z,53.64
2023-05-08T05:22:58.097Z,53.40
2023-05-08T05:24:00.984Z,53.32
2023-05-08T05:25:04.298Z,52.80
2023-05-08T05:26:06.658Z,52.88
2023-05-08T05:27:09.086Z,52.64
2023-05-08T05:28:12.298Z,52.77
2023-05-08T05:29:14.767Z,52.59
2023-05-08T05:30:17.150Z,52.59
2023-05-08T05:31:19.729Z,52.33
2023-05-08T05:32:22.761Z,51.69
2023-05-08T05:33:25.293Z,51.23
2023-05-08T05:34:27.685Z,51.00
2023-05-08T05:35:30.184Z,50.56
2023-05-08T05:36:32.896Z,50.29
2023-05-08T05:37:35.352Z,49.79
2023-05-08T05:38:37.835Z,49.45
2023-05-08T05:39:40.815Z,48.99
2023-05-08T05:40:43.191Z,48.75
2023-05-08T05:41:45.648Z,48.24
2023-05-08T05:42:50.382Z,48.36
2023-05-08T05:43:53.562Z,48.24
2023-05-08T05:44:57.076Z,48.20
2023-05-08T05:46:10.040Z,48.12
2023-05-08T05:47:13.881Z,47.90
2023-05-08T05:48:17.139Z,47.23
2023-05-08T05:49:20.783Z,47.30
2023-05-08T05:50:23.636Z,47.26
2023-05-08T05:51:27.967Z,47.36
2023-05-08T05:52:30.775Z,47.02
2023-05-08T05:53:34.646Z,46.94
2023-05-08T05:54:38.784Z,46.59
2023-05-08T05:55:41.559Z,46.36
2023-05-08T05:56:43.863Z,45.94
2023-05-08T05:57:46.311Z,45.98
2023-05-08T05:58:48.541Z,45.81
2023-05-08T05:59:52.274Z,46.52
2023-05-08T06:00:55.499Z,46.49
2023-05-08T06:01:57.840Z,46.46
2023-05-08T06:03:00.461Z,46.47
2023-05-08T06:04:03.046Z,45.68
2023-05-08T06:05:05.771Z,45.34
2023-05-08T06:06:08.185Z,45.27
2023-05-08T06:07:10.706Z,45.11
2023-05-08T06:08:13.716Z,45.21
2023-05-08T06:09:16.155Z,45.22
2023-05-08T06:10:19.292Z,44.72
2023-05-08T06:11:22.835Z,45.16
2023-05-08T06:12:25.690Z,45.18
2023-05-08T06:13:28.399Z,44.40
2023-05-08T06:14:31.516Z,44.29
2023-05-08T06:15:34.330Z,44.22
2023-05-08T06:16:36.821Z,44.11
2023-05-08T06:17:39.166Z,43.77
2023-05-08T06:18:41.814Z,43.17
2023-05-08T06:19:50.510Z,43.01
2023-05-08T06:20:58.178Z,42.65
2023-05-08T06:22:00.603Z,42.89
2023-05-08T06:23:03.048Z,42.65
2023-05-08T06:24:06.877Z,42.17
2023-05-08T06:25:10.137Z,42.34
2023-05-08T06:26:12.585Z,42.09
2023-05-08T06:27:15.180Z,41.98
2023-05-08T06:28:17.546Z,41.88
2023-05-08T06:29:19.881Z,41.40
2023-05-08T06:30:22.556Z,41.38
2023-05-08T06:31:27.254Z,41.38
2023-05-08T06:32:29.692Z,41.54
2023-05-08T06:33:32.058Z,41.55
2023-05-08T06:34:35.301Z,41.78
2023-05-08T06:35:37.714Z,40.83
2023-05-08T06:36:40.208Z,39.90
2023-05-08T06:37:42.582Z,40.38
2023-05-08T06:38:44.953Z,39.87
2023-05-08T06:39:48.967Z,40.35
2023-05-08T06:40:54.150Z,40.37
2023-05-08T06:41:56.486Z,40.24
2023-05-08T06:43:04.464Z,39.50
2023-05-08T06:44:06.697Z,39.21
2023-05-08T06:45:10.317Z,39.11
2023-05-08T06:46:13.182Z,39.07
2023-05-08T06:47:15.859Z,39.54
2023-05-08T06:48:18.157Z,38.35
2023-05-08T06:49:20.489Z,38.65
2023-05-08T06:50:22.797Z,38.61
2023-05-08T06:51:25.239Z,38.80
2023-05-08T06:52:27.522Z,37.80
2023-05-08T06:53:29.785Z,38.05
2023-05-08T06:54:32.049Z,37.96
2023-05-08T06:55:34.385Z,37.75
2023-05-08T06:56:36.763Z,37.52
2023-05-08T06:57:39.158Z,37.63
2023-05-08T06:58:41.462Z,37.96
2023-05-08T06:59:43.923Z,38.05
2023-05-08T07:00:46.353Z,37.85
2023-05-08T07:01:48.716Z,37.61
2023-05-08T07:02:52.216Z,37.59
2023-05-08T07:03:54.508Z,37.65
2023-05-08T07:04:56.793Z,37.63
2023-05-08T07:05:59.530Z,37.97
2023-05-08T07:07:01.871Z,38.12
2023-05-08T07:08:04.282Z,37.68
2023-05-08T07:09:06.684Z,37.20
2023-05-08T07:10:09.514Z,36.75
2023-05-08T07:11:13.606Z,36.60
2023-05-08T07:12:16.902Z,36.58
2023-05-08T07:13:22.254Z,36.36
2023-05-08T07:14:24.618Z,36.68
2023-05-08T07:15:27.253Z,36.64
2023-05-08T07:16:29.667Z,36.28
2023-05-08T07:17:32.929Z,35.97
2023-05-08T07:18:35.253Z,35.96
2023-05-08T07:19:38.703Z,35.54
2023-05-08T07:20:41.028Z,35.39
2023-05-08T07:21:43.374Z,35.75
2023-05-08T07:22:45.705Z,35.70
2023-05-08T07:23:49.274Z,35.69
2023-05-08T07:24:51.610Z,34.73
2023-05-08T07:25:54.788Z,34.94
2023-05-08T07:26:57.480Z,35.14
2023-05-08T07:28:01.369Z,35.13
2023-05-08T07:29:04.007Z,34.94
2023-05-08T07:30:07.046Z,34.73
2023-05-08T07:31:09.426Z,34.84
2023-05-08T07:32:11.843Z,35.06
2023-05-08T07:33:14.254Z,34.53
2023-05-08T07:34:16.528Z,34.97
2023-05-08T07:35:18.825Z,35.01
2023-05-08T07:36:21.170Z,34.08
2023-05-08T07:37:23.864Z,34.17
2023-05-08T07:38:26.180Z,34.69
2023-05-08T07:39:28.413Z,34.52
2023-05-08T07:40:30.853Z,34.54
2023-05-08T07:41:33.326Z,34.30
2023-05-08T07:42:42.723Z,34.41
2023-05-08T07:43:45.457Z,34.44
2023-05-08T07:44:54.524Z,34.76
2023-05-08T07:45:58.554Z,34.61
2023-05-08T07:47:01.154Z,34.40
2023-05-08T07:48:03.674Z,34.17
2023-05-08T07:49:06.545Z,33.62
2023-05-08T07:50:09.077Z,33.26
2023-05-08T07:51:14.271Z,33.13
2023-05-08T07:52:16.891Z,33.65
2023-05-08T07:53:19.271Z,33.80
2023-05-08T07:54:21.592Z,33.91
2023-05-08T07:55:23.989Z,34.09
2023-05-08T07:56:27.383Z,34.15
2023-05-08T07:57:37.022Z,34.11
2023-05-08T07:58:39.477Z,33.58
2023-05-08T07:59:41.807Z,33.45
2023-05-08T08:00:45.858Z,33.90
2023-05-08T08:01:48.246Z,33.61
2023-05-08T08:02:51.703Z,33.04
2023-05-08T08:03:54.785Z,32.96
2023-05-08T08:04:57.292Z,32.28
2023-05-08T08:05:59.957Z,32.49
2023-05-08T08:07:02.254Z,32.54
2023-05-08T08:08:05.682Z,32.63
2023-05-08T08:09:08.231Z,32.24
2023-05-08T08:10:11.837Z,32.36
2023-05-08T08:11:14.169Z,31.94
2023-05-08T08:12:16.636Z,32.32
2023-05-08T08:13:19.019Z,31.55
2023-05-08T08:14:23.963Z,32.34
2023-05-08T08:15:26.304Z,31.98
2023-05-08T08:16:28.595Z,31.99
2023-05-08T08:17:31.199Z,32.19
2023-05-08T08:18:37.084Z,31.87
2023-05-08T08:19:39.426Z,31.67
2023-05-08T08:20:41.752Z,32.27
2023-05-08T08:21:44.282Z,32.24
2023-05-08T08:22:46.595Z,31.42
2023-05-08T08:23:48.907Z,31.37
2023-05-08T08:24:52.476Z,31.42
2023-05-08T08:25:58.303Z,32.06
2023-05-08T08:27:00.708Z,31.65
2023-05-08T08:28:03.149Z,31.83
2023-05-08T08:29:05.498Z,31.86
2023-05-08T08:30:16.991Z,32.09
2023-05-08T08:31:20.349Z,32.19
2023-05-08T08:32:22.799Z,31.63
2023-05-08T08:33:25.114Z,31.20
2023-05-08T08:34:28.321Z,31.39
2023-05-08T08:35:30.673Z,31.92
2023-05-08T08:36:33.105Z,32.21
2023-05-08T08:37:35.620Z,32.11
2023-05-08T08:38:38.295Z,31.83
2023-05-08T08:39:44.907Z,31.87
2023-05-08T08:40:47.271Z,31.46
2023-05-08T08:41:49.620Z,31.72
2023-05-08T08:42:52.116Z,31.55
2023-05-08T08:43:55.372Z,31.26
2023-05-08T08:44:57.773Z,31.36
2023-05-08T08:46:10.306Z,30.50
2023-05-08T08:47:14.145Z,30.41
2023-05-08T08:48:17.196Z,30.10
2023-05-08T08:49:26.026Z,30.20
2023-05-08T08:50:33.197Z,30.57
2023-05-08T08:51:50.460Z,30.38
2023-05-08T08:53:10.589Z,30.04
2023-05-08T08:54:14.395Z,29.61
2023-05-08T08:55:18.877Z,29.44
2023-05-08T08:56:23.868Z,29.65
2023-05-08T08:57:28.835Z,30.20
2023-05-08T08:58:39.269Z,30.40
2023-05-08T08:59:43.406Z,29.55
2023-05-08T09:00:47.720Z,30.44
2023-05-08T09:01:55.236Z,30.22
2023-05-08T09:02:58.136Z,30.14
2023-05-08T09:04:01.302Z,29.99
2023-05-08T09:05:03.859Z,30.06
2023-05-08T09:06:06.889Z,30.16
2023-05-08T09:07:10.685Z,30.21
2023-05-08T09:08:14.298Z,30.16
2023-05-08T09:09:16.739Z,30.31
2023-05-08T09:10:19.094Z,30.47
2023-05-08T09:11:21.727Z,29.53
2023-05-08T09:12:25.671Z,29.49
2023-05-08T09:13:29.706Z,29.90
2023-05-08T09:14:32.367Z,29.53
2023-05-08T09:15:34.712Z,29.49
2023-05-08T09:16:37.266Z,29.59
2023-05-08T09:17:39.596Z,29.00
2023-05-08T09:18:41.878Z,29.66
2023-05-08T09:19:45.157Z,29.88
2023-05-08T09:20:48.167Z,29.30
2023-05-08T09:21:51.410Z,29.50
2023-05-08T09:22:54.850Z,29.67
2023-05-08T09:23:59.166Z,29.09
2023-05-08T09:25:02.465Z,29.24
2023-05-08T09:26:04.813Z,29.40
2023-05-08T09:27:21.740Z,30.02
2023-05-08T09:28:27.037Z,29.79
2023-05-08T09:29:29.383Z,29.86
2023-05-08T09:30:31.740Z,29.95
2023-05-08T09:31:40.021Z,29.56
2023-05-08T09:32:44.472Z,29.81
2023-05-08T09:33:46.858Z,28.87
2023-05-08T09:34:53.786Z,29.11
2023-05-08T09:35:57.597Z,28.81
2023-05-08T09:37:05.859Z,28.67
2023-05-08T09:38:08.144Z,28.96
2023-05-08T09:39:14.308Z,28.86
2023-05-08T09:40:18.941Z,28.92
2023-05-08T09:41:22.078Z,29.23
2023-05-08T09:42:26.377Z,29.17
2023-05-08T09:43:29.051Z,29.26
2023-05-08T09:44:43.960Z,29.17
2023-05-08T09:45:46.379Z,29.20
2023-05-08T09:46:51.080Z,28.65
2023-05-08T09:47:53.401Z,28.74
2023-05-08T09:48:57.692Z,28.02
2023-05-08T09:50:04.768Z,28.65
2023-05-08T09:51:07.402Z,29.25
2023-05-08T09:52:15.993Z,29.32
2023-05-08T09:53:18.671Z,28.59
2023-05-08T09:54:21.171Z,28.00
2023-05-08T09:55:23.493Z,27.71
2023-05-08T09:56:39.751Z,28.37
2023-05-08T09:57:59.232Z,28.37
2023-05-08T09:59:06.821Z,28.06
2023-05-08T10:00:11.501Z,27.83
2023-05-08T10:01:37.581Z,28.79
2023-05-08T10:02:42.286Z,28.33
2023-05-08T10:03:49.237Z,28.71
2023-05-08T10:04:51.704Z,28.29
2023-05-08T10:05:54.030Z,27.99
2023-05-08T10:06:59.863Z,28.08
2023-05-08T10:08:22.777Z,28.75
2023-05-08T10:09:26.149Z,28.73
2023-05-08T10:10:31.109Z,29.03
2023-05-08T10:11:35.118Z,29.19
2023-05-08T10:12:38.201Z,29.54
2023-05-08T10:13:40.931Z,29.10
2023-05-08T10:14:46.204Z,29.76
2023-05-08T10:15:54.632Z,29.70
2023-05-08T10:17:00.165Z,29.52
2023-05-08T10:18:06.539Z,29.56
2023-05-08T10:19:16.533Z,29.55
2023-05-08T10:20:21.633Z,29.55
2023-05-08T10:21:27.173Z,29.28
2023-05-08T10:22:33.812Z,29.71
2023-05-08T10:23:38.022Z,29.82
2023-05-08T10:24:41.769Z,29.70
2023-05-08T10:25:47.282Z,29.32
2023-05-08T10:27:06.983Z,29.84
2023-05-08T10:28:16.150Z,29.74
2023-05-08T10:29:25.221Z,29.12
2023-05-08T10:30:28.378Z,29.06
2023-05-08T10:31:36.728Z,28.87
2023-05-08T10:32:44.410Z,28.94
2023-05-08T10:33:54.998Z,28.89
2023-05-08T10:34:59.996Z,29.27
2023-05-08T10:36:02.385Z,29.49
2023-05-08T10:37:06.314Z,29.43
2023-05-08T10:38:10.107Z,29.59
2023-05-08T10:39:14.744Z,28.33
2023-05-08T10:40:18.906Z,28.52
2023-05-08T10:41:23.453Z,28.23
2023-05-08T10:42:27.736Z,28.53
2023-05-08T10:43:33.974Z,28.58
2023-05-08T10:44:38.773Z,28.84
2023-05-08T10:45:41.260Z,28.89
2023-05-08T10:46:52.047Z,29.35
2023-05-08T10:48:12.683Z,28.44
2023-05-08T10:49:34.357Z,28.85
2023-05-08T10:51:06.914Z,28.84
2023-05-08T10:52:30.430Z,28.95
2023-05-08T10:53:42.713Z,28.41
2023-05-08T10:55:04.601Z,28.61
2023-05-08T10:56:07.453Z,28.78
2023-05-08T10:57:11.811Z,28.66
2023-05-08T10:58:35.200Z,29.00
2023-05-08T10:59:38.160Z,28.29
2023-05-08T11:00:52.176Z,28.64
2023-05-08T11:02:04.673Z,28.59
2023-05-08T11:03:16.915Z,28.52
2023-05-08T11:04:28.890Z,28.75
2023-05-08T11:05:31.305Z,28.98
2023-05-08T11:06:53.161Z,29.06
2023-05-08T11:07:56.346Z,29.16
2023-05-08T11:09:00.463Z,29.24
2023-05-08T11:10:14.669Z,27.89
2023-05-08T11:11:24.978Z,28.09
2023-05-08T11:12:28.833Z,27.89
2023-05-08T11:13:35.196Z,27.71
2023-05-08T11:14:42.572Z,27.62
2023-05-08T11:15:51.095Z,27.74
2023-05-08T11:17:02.138Z,27.73
2023-05-08T11:18:11.803Z,28.10
2023-05-08T11:19:19.063Z,28.07
2023-05-08T11:20:39.301Z,28.50
2023-05-08T11:22:11.074Z,28.51
2023-05-08T11:23:30.204Z,28.51
2023-05-08T11:24:41.355Z,28.59
2023-05-08T11:25:44.645Z,28.44
2023-05-08T11:26:49.813Z,27.47
2023-05-08T11:28:09.809Z,26.80
2023-05-08T11:29:17.967Z,27.71
2023-05-08T11:30:32.572Z,27.99
2023-05-08T11:31:51.226Z,28.05
2023-05-08T11:33:06.241Z,27.93
2023-05-08T11:34:44.278Z,27.93
2023-05-08T11:36:25.303Z,28.00
2023-05-08T11:37:29.484Z,27.69
2023-05-08T11:38:31.982Z,27.46
2023-05-08T11:39:34.245Z,27.69
2023-05-08T11:40:59.823Z,27.73
2023-05-08T11:42:30.066Z,28.16
2023-05-08T11:43:38.589Z,28.12
2023-05-08T11:44:40.974Z,27.91
2023-05-08T11:45:43.424Z,28.36
2023-05-08T11:46:56.221Z,28.68
2023-05-08T11:48:02.089Z,28.26
2023-05-08T11:49:04.478Z,28.73
2023-05-08T11:50:08.161Z,28.60
2023-05-08T11:51:10.615Z,28.80
2023-05-08T11:52:12.972Z,28.77
2023-05-08T11:53:15.308Z,28.18
2023-05-08T11:54:20.631Z,28.52
2023-05-08T11:55:23.010Z,28.17
2023-05-08T11:56:25.293Z,28.44
2023-05-08T11:57:31.114Z,28.55
2023-05-08T11:58:33.502Z,28.39
2023-05-08T11:59:36.993Z,28.44
2023-05-08T12:00:46.284Z,28.08
2023-05-08T12:02:06.818Z,27.56
2023-05-08T12:03:14.958Z,27.70
2023-05-08T12:04:17.738Z,27.79
2023-05-08T12:05:27.363Z,28.16
2023-05-08T12:06:32.213Z,28.18
2023-05-08T12:07:46.905Z,28.85
2023-05-08T12:08:49.364Z,28.13
2023-05-08T12:09:51.795Z,28.40
2023-05-08T12:10:56.978Z,28.35
2023-05-08T12:11:59.355Z,28.47
2023-05-08T12:13:01.710Z,27.66
2023-05-08T12:14:04.899Z,27.35
2023-05-08T12:15:12.137Z,27.20
2023-05-08T12:16:14.403Z,26.96
2023-05-08T12:17:19.979Z,27.20
2023-05-08T12:18:23.632Z,27.49
2023-05-08T12:19:43.673Z,27.47
2023-05-08T12:20:46.538Z,26.91
2023-05-08T12:21:49.375Z,27.13
2023-05-08T12:22:53.292Z,27.15
2023-05-08T12:23:59.075Z,27.25
2023-05-08T12:25:04.242Z,27.23
2023-05-08T12:26:08.493Z,27.25
2023-05-08T12:27:13.448Z,26.90
2023-05-08T12:28:15.948Z,26.35
2023-05-08T12:29:20.906Z,26.97
2023-05-08T12:30:23.308Z,27.23
2023-05-08T12:31:25.849Z,26.90
2023-05-08T12:32:29.204Z,27.30
2023-05-08T12:33:33.108Z,27.04
2023-05-08T12:34:36.215Z,27.04
2023-05-08T12:35:40.044Z,27.42
2023-05-08T12:36:42.416Z,27.72
2023-05-08T12:37:46.285Z,27.77
2023-05-08T12:38:50.576Z,27.89
2023-05-08T12:39:52.840Z,27.73
2023-05-08T12:40:58.034Z,27.54
2023-05-08T12:42:01.021Z,28.16
2023-05-08T12:43:04.232Z,28.81
2023-05-08T12:44:17.128Z,28.96
2023-05-08T12:45:25.184Z,29.41
2023-05-08T12:46:28.320Z,29.08
2023-05-08T12:47:30.690Z,28.44
2023-05-08T12:48:32.987Z,28.85
2023-05-08T12:49:35.323Z,29.14
2023-05-08T12:50:40.400Z,29.50
2023-05-08T12:51:46.316Z,29.77
2023-05-08T12:52:51.608Z,29.67
2023-05-08T12:53:54.229Z,29.72
2023-05-08T12:54:56.548Z,29.75
2023-05-08T12:56:02.913Z,29.50
2023-05-08T12:57:22.895Z,29.53
2023-05-08T12:58:30.710Z,29.94
2023-05-08T12:59:33.520Z,30.00
2023-05-08T13:00:40.811Z,30.01
2023-05-08T13:01:43.146Z,29.62
2023-05-08T13:02:53.900Z,29.12
2023-05-08T13:04:02.037Z,28.96
2023-05-08T13:05:06.036Z,29.04
2023-05-08T13:06:21.469Z,29.55
2023-05-08T13:07:23.964Z,29.58
2023-05-08T13:08:37.579Z,29.69
2023-05-08T13:09:55.541Z,29.79
2023-05-08T13:10:57.892Z,29.43
2023-05-08T13:12:00.283Z,29.68
2023-05-08T13:13:02.674Z,30.17
2023-05-08T13:14:04.983Z,30.34
2023-05-08T13:15:07.877Z,30.52
2023-05-08T13:16:10.237Z,30.17
2023-05-08T13:17:17.781Z,30.39
2023-05-08T13:18:21.918Z,30.20
2023-05-08T13:19:24.405Z,30.54
2023-05-08T13:20:26.722Z,30.19
2023-05-08T13:21:29.059Z,29.94
2023-05-08T13:22:31.351Z,30.25
2023-05-08T13:23:33.671Z,30.54
2023-05-08T13:24:36.724Z,30.52
2023-05-08T13:25:40.718Z,30.51
2023-05-08T13:26:43.350Z,30.54
2023-05-08T13:27:45.991Z,30.70
2023-05-08T13:28:48.282Z,31.02
2023-05-08T13:29:50.623Z,30.91
2023-05-08T13:30:52.880Z,30.85
2023-05-08T13:31:55.543Z,30.63
2023-05-08T13:32:57.831Z,30.83
2023-05-08T13:34:00.174Z,30.76
2023-05-08T13:35:02.548Z,31.04
2023-05-08T13:36:05.074Z,31.01
2023-05-08T13:37:07.309Z,31.24
2023-05-08T13:38:09.620Z,30.85
2023-05-08T13:39:12.036Z,30.63
2023-05-08T13:40:14.966Z,30.79
2023-05-08T13:41:17.501Z,30.76
2023-05-08T13:42:19.705Z,30.71
2023-05-08T13:43:22.231Z,30.83
2023-05-08T13:44:24.836Z,30.80
2023-05-08T13:45:27.176Z,31.21
2023-05-08T13:46:29.588Z,30.94
2023-05-08T13:47:33.879Z,31.07
2023-05-08T13:48:36.229Z,30.94
2023-05-08T13:49:38.649Z,31.19
2023-05-08T13:50:41.026Z,31.25
2023-05-08T13:51:46.972Z,30.86
2023-05-08T13:52:54.469Z,31.27
2023-05-08T13:53:57.310Z,31.31
2023-05-08T13:54:59.644Z,31.02
2023-05-08T13:56:02.008Z,31.22
2023-05-08T13:57:04.629Z,30.90
2023-05-08T13:58:06.919Z,30.96
2023-05-08T13:59:09.224Z,31.38
2023-05-08T14:00:13.012Z,31.30
2023-05-08T14:01:25.675Z,30.82
2023-05-08T14:02:28.618Z,30.94
2023-05-08T14:03:31.479Z,30.90
2023-05-08T14:04:33.832Z,31.27
2023-05-08T14:05:36.175Z,31.07
2023-05-08T14:06:38.466Z,31.58
2023-05-08T14:07:41.035Z,31.65
2023-05-08T14:08:46.624Z,31.14
2023-05-08T14:09:51.298Z,31.00